createdAt,value
2019-04-11T00:00:41.765Z,98.62
2019-04-11T00:01:46.323Z,98.11
2019-04-11T00:02:41.687Z,98.58
2019-04-11T00:03:41.692Z,98.83
2019-04-11T00:04:40.643Z,98.68
2019-04-11T00:05:41.255Z,98.83
2019-04-11T00:06:41.430Z,99.24
2019-04-11T00:07:40.607Z,98.62
2019-04-11T00:08:41.695Z,97.80
2019-04-11T00:09:40.896Z,97.39
2019-04-11T00:10:41.560Z,97.14
2019-04-11T00:11:40.577Z,98.58
2019-04-11T00:12:40.928Z,99.34
2019-04-11T00:13:41.104Z,98.72
2019-04-11T00:14:40.586Z,99.04
2019-04-11T00:15:40.529Z,98.62
2019-04-11T00:16:41.533Z,99.44
2019-04-11T00:17:40.510Z,99.24
2019-04-11T00:18:41.003Z,99.99
2019-04-11T00:19:40.497Z,98.32
2019-04-11T00:20:40.484Z,98.32
2019-04-11T00:21:41.312Z,98.00
2019-04-11T00:22:41.513Z,97.49
2019-04-11T00:23:40.579Z,98.62
2019-04-11T00:24:40.469Z,98.72
2019-04-11T00:25:40.427Z,97.08
2019-04-11T00:26:40.464Z,97.90
2019-04-11T00:27:41.338Z,97.69
2019-04-11T00:28:41.567Z,98.11
2019-04-11T00:29:40.721Z,97.60
2019-04-11T00:30:40.386Z,95.95
2019-04-11T00:31:41.127Z,97.28
2019-04-11T00:32:41.325Z,97.39
2019-04-11T00:33:40.462Z,96.97
2019-04-11T00:34:40.332Z,97.39
2019-04-11T00:35:40.330Z,97.80
2019-04-11T00:36:40.832Z,98.72
2019-04-11T00:37:41.242Z,96.97
2019-04-11T00:38:40.352Z,96.88
2019-04-11T00:39:40.298Z,98.42
2019-04-11T00:40:41.516Z,97.80
2019-04-11T00:41:40.291Z,98.00
2019-04-11T00:42:40.916Z,97.28
2019-04-11T00:43:42.120Z,97.80
2019-04-11T00:44:41.163Z,96.77
2019-04-11T00:45:40.263Z,96.88
2019-04-11T00:46:40.508Z,97.69
2019-04-11T00:47:41.462Z,97.49
2019-04-11T00:48:40.227Z,97.18
2019-04-11T00:49:40.827Z,97.28
2019-04-11T00:50:40.250Z,96.56
2019-04-11T00:51:42.252Z,96.67
2019-04-11T00:52:41.235Z,96.88
2019-04-11T00:53:40.391Z,95.53
2019-04-11T00:54:40.703Z,96.77
2019-04-11T00:55:40.126Z,96.67
2019-04-11T00:56:40.139Z,97.69
2019-04-11T00:57:41.144Z,96.92
2019-04-11T00:58:40.094Z,97.33
2019-04-11T00:59:40.612Z,97.13
2019-04-11T01:00:40.091Z,96.71
2019-04-11T01:01:40.905Z,96.67
2019-04-11T01:02:41.754Z,97.02
2019-04-11T01:03:40.035Z,97.08
2019-04-11T01:04:41.142Z,96.77
2019-04-11T01:05:40.026Z,95.64
2019-04-11T01:06:40.517Z,95.53
2019-04-11T01:07:40.883Z,94.40
2019-04-11T01:08:40.018Z,95.33
2019-04-11T01:09:40.269Z,95.02
2019-04-11T01:10:39.970Z,93.37
2019-04-11T01:11:40.404Z,95.02
2019-04-11T01:12:40.776Z,95.02
2019-04-11T01:13:47.754Z,96.77
2019-04-11T01:14:40.967Z,96.36
2019-04-11T01:15:40.785Z,96.97
2019-04-11T01:16:40.966Z,97.02
2019-04-11T01:17:39.941Z,94.60
2019-04-11T01:18:40.368Z,94.92
2019-04-11T01:19:40.699Z,96.46
2019-04-11T01:20:39.863Z,97.43
2019-04-11T01:21:40.396Z,95.53
2019-04-11T01:22:40.526Z,96.67
2019-04-11T01:23:39.890Z,96.56
2019-04-11T01:24:39.955Z,96.97
2019-04-11T01:25:40.935Z,96.41
2019-04-11T01:26:39.807Z,96.46
2019-04-11T01:27:41.109Z,95.12
2019-04-11T01:28:39.781Z,94.96
2019-04-11T01:29:39.872Z,93.79
2019-04-11T01:30:40.829Z,95.17
2019-04-11T01:31:39.960Z,96.46
2019-04-11T01:32:40.281Z,95.64
2019-04-11T01:33:40.209Z,95.74
2019-04-11T01:34:40.435Z,95.74
2019-04-11T01:35:39.712Z,96.46
2019-04-11T01:36:39.728Z,97.08
2019-04-11T01:37:39.880Z,97.39
2019-04-11T01:38:40.795Z,96.67
2019-04-11T01:39:39.677Z,96.61
2019-04-11T01:40:40.123Z,95.48
2019-04-11T01:41:39.672Z,93.99
2019-04-11T01:42:39.751Z,96.77
2019-04-11T01:43:43.514Z,95.17
2019-04-11T01:44:41.019Z,96.77
2019-04-11T01:45:39.610Z,96.46
2019-04-11T01:46:40.291Z,97.18
2019-04-11T01:47:39.587Z,97.69
2019-04-11T01:48:39.688Z,96.56
2019-04-11T01:49:40.608Z,96.46
2019-04-11T01:50:39.570Z,96.77
2019-04-11T01:51:40.112Z,96.71
2019-04-11T01:52:39.568Z,96.97
2019-04-11T01:53:41.011Z,96.92
2019-04-11T01:54:39.635Z,96.81
2019-04-11T01:55:39.514Z,97.02
2019-04-11T01:56:39.508Z,98.25
2019-04-11T01:57:40.270Z,98.77
2019-04-11T01:58:40.550Z,99.08
2019-04-11T01:59:39.680Z,98.97
2019-04-11T02:00:39.928Z,98.88
2019-04-11T02:01:39.499Z,98.88
2019-04-11T02:02:39.438Z,98.05
2019-04-11T02:03:39.477Z,98.36
2019-04-11T02:04:40.400Z,96.50
2019-04-11T02:05:39.429Z,96.81
2019-04-11T02:06:40.321Z,96.71
2019-04-11T02:07:39.628Z,98.15
2019-04-11T02:08:39.686Z,98.77
2019-04-11T02:09:40.071Z,99.99
2019-04-11T02:10:39.562Z,99.99
2019-04-11T02:11:39.588Z,99.99
2019-04-11T02:12:39.817Z,99.90
2019-04-11T02:13:39.735Z,99.95
2019-04-11T02:14:39.668Z,99.95
2019-04-11T02:15:39.337Z,99.85
2019-04-11T02:16:39.331Z,98.71
2019-04-11T02:17:39.410Z,99.64
2019-04-11T02:18:39.399Z,99.99
2019-04-11T02:19:40.482Z,99.99
2019-04-11T02:20:39.297Z,99.99
2019-04-11T02:21:40.031Z,99.70
2019-04-11T02:22:40.393Z,98.15
2019-04-11T02:23:39.431Z,99.02
2019-04-11T02:24:39.696Z,98.97
2019-04-11T02:25:39.319Z,99.95
2019-04-11T02:26:39.234Z,99.64
2019-04-11T02:27:40.201Z,99.13
2019-04-11T02:28:39.214Z,99.70
2019-04-11T02:29:39.198Z,98.92
2019-04-11T02:30:41.215Z,97.38
2019-04-11T02:31:39.198Z,97.38
2019-04-11T02:32:40.401Z,98.30
2019-04-11T02:33:39.163Z,98.67
2019-04-11T02:34:39.720Z,99.43
2019-04-11T02:35:39.919Z,99.80
2019-04-11T02:36:40.549Z,98.36
2019-04-11T02:37:39.901Z,97.99
2019-04-11T02:38:41.084Z,96.86
2019-04-11T02:39:40.810Z,97.68
2019-04-11T02:40:40.905Z,96.61
2019-04-11T02:41:39.824Z,97.48
2019-04-11T02:42:39.148Z,96.96
2019-04-11T02:43:42.071Z,95.31
2019-04-11T02:44:56.551Z,96.55
2019-04-11T02:45:53.995Z,96.71
2019-04-11T02:46:44.896Z,96.66
2019-04-11T02:47:43.823Z,96.86
2019-04-11T02:48:40.652Z,97.23
2019-04-11T02:49:39.379Z,95.21
2019-04-11T02:50:41.024Z,96.55
2019-04-11T02:51:39.247Z,97.48
2019-04-11T02:52:40.250Z,98.20
2019-04-11T02:53:39.053Z,97.58
2019-04-11T02:54:38.997Z,95.31
2019-04-11T02:55:38.945Z,94.90
2019-04-11T02:56:40.653Z,95.73
2019-04-11T02:57:40.615Z,96.66
2019-04-11T02:58:39.767Z,96.75
2019-04-11T02:59:39.501Z,96.75
2019-04-11T03:00:40.212Z,94.80
2019-04-11T03:01:39.915Z,96.55
2019-04-11T03:02:39.394Z,95.21
2019-04-11T03:03:39.488Z,95.62
2019-04-11T03:04:39.348Z,96.55
2019-04-11T03:05:39.480Z,95.10
2019-04-11T03:06:39.662Z,95.00
2019-04-11T03:07:40.109Z,94.80
2019-04-11T03:08:40.783Z,94.59
2019-04-11T03:09:39.354Z,95.42
2019-04-11T03:10:40.744Z,93.98
2019-04-11T03:11:38.814Z,94.80
2019-04-11T03:12:40.402Z,96.86
2019-04-11T03:13:38.758Z,95.73
2019-04-11T03:15:00.756Z,94.59
2019-04-11T03:15:56.930Z,94.80
2019-04-11T03:16:53.029Z,94.90
2019-04-11T03:17:43.236Z,93.87
2019-04-11T03:18:57.356Z,95.21
2019-04-11T03:19:54.290Z,96.75
2019-04-11T03:20:47.532Z,95.00
2019-04-11T03:21:43.858Z,94.90
2019-04-11T03:22:40.581Z,94.59
2019-04-11T03:23:39.742Z,95.83
2019-04-11T03:24:40.450Z,95.10
2019-04-11T03:25:38.729Z,95.52
2019-04-11T03:26:38.622Z,94.08
2019-04-11T03:27:38.602Z,95.73
2019-04-11T03:28:40.742Z,96.45
2019-04-11T03:29:38.664Z,96.66
2019-04-11T03:31:01.677Z,95.00
2019-04-11T03:32:24.802Z,94.18
2019-04-11T03:34:37.715Z,94.90
2019-04-11T03:38:00.089Z,95.62
2019-04-11T03:39:00.395Z,95.31
2019-04-11T03:40:00.151Z,94.80
2019-04-11T03:40:57.950Z,94.90
2019-04-11T03:41:54.771Z,93.66
2019-04-11T03:42:54.323Z,93.77
2019-04-11T03:43:50.876Z,93.15
2019-04-11T03:44:44.927Z,93.66
2019-04-11T03:46:01.916Z,94.70
2019-04-11T03:46:54.245Z,96.03
2019-04-11T03:47:54.456Z,93.25
2019-04-11T03:48:50.781Z,93.77
2019-04-11T03:49:46.665Z,93.66
2019-04-11T03:50:40.241Z,94.90
2019-04-11T03:51:39.274Z,95.21
2019-04-11T03:52:38.321Z,94.90
2019-04-11T03:53:38.502Z,95.10
2019-04-11T03:54:40.517Z,95.21
2019-04-11T03:55:39.061Z,95.21
2019-04-11T03:56:38.985Z,95.52
2019-04-11T03:57:39.417Z,93.66
2019-04-11T03:58:39.705Z,93.66
2019-04-11T03:59:39.116Z,92.84
2019-04-11T04:00:42.504Z,95.00
2019-04-11T04:01:39.914Z,94.28
2019-04-11T04:02:39.106Z,94.49
2019-04-11T04:03:39.234Z,93.46
2019-04-11T04:04:39.259Z,92.84
2019-04-11T04:05:39.095Z,91.40
2019-04-11T04:06:39.424Z,92.53
2019-04-11T04:07:38.333Z,91.97
2019-04-11T04:08:38.670Z,91.15
2019-04-11T04:09:39.710Z,92.33
2019-04-11T04:10:39.519Z,92.29
2019-04-11T04:11:38.537Z,92.63
2019-04-11T04:12:40.090Z,92.84
2019-04-11T04:13:38.935Z,93.66
2019-04-11T04:14:39.203Z,93.46
2019-04-11T04:15:51.596Z,92.22
2019-04-11T04:16:45.695Z,93.25
2019-04-11T04:17:39.357Z,93.77
2019-04-11T04:18:38.221Z,94.90
2019-04-11T04:19:39.681Z,95.10
2019-04-11T04:20:39.441Z,93.25
2019-04-11T04:21:38.749Z,93.98
2019-04-11T04:22:39.643Z,94.90
2019-04-11T04:23:38.155Z,94.64
2019-04-11T04:24:40.507Z,95.00
2019-04-11T04:25:39.186Z,94.23
2019-04-11T04:26:39.141Z,94.95
2019-04-11T04:27:38.805Z,95.25
2019-04-11T04:28:40.475Z,95.05
2019-04-11T04:29:38.178Z,96.70
2019-04-11T04:30:38.960Z,95.67
2019-04-11T04:31:38.564Z,95.25
2019-04-11T04:32:38.615Z,96.80
2019-04-11T04:33:39.936Z,96.59
2019-04-11T04:34:37.949Z,95.77
2019-04-11T04:35:38.600Z,95.67
2019-04-11T04:36:37.973Z,93.91
2019-04-11T04:37:38.801Z,95.05
2019-04-11T04:38:39.568Z,95.15
2019-04-11T04:39:39.651Z,94.84
2019-04-11T04:40:53.876Z,94.64
2019-04-11T04:41:45.790Z,95.10
2019-04-11T04:42:45.512Z,95.25
2019-04-11T04:43:38.896Z,96.80
2019-04-11T04:44:38.045Z,96.70
2019-04-11T04:45:59.704Z,96.70
2019-04-11T04:46:57.211Z,97.94
2019-04-11T04:47:47.140Z,97.42
2019-04-11T04:48:40.386Z,96.80
2019-04-11T04:49:38.846Z,95.67
2019-04-11T04:50:39.193Z,96.59
2019-04-11T04:51:39.092Z,97.52
2019-04-11T04:52:38.135Z,97.01
2019-04-11T04:53:39.059Z,97.73
2019-04-11T04:54:38.607Z,98.03
2019-04-11T04:55:37.742Z,97.94
2019-04-11T04:56:39.775Z,95.56
2019-04-11T04:57:40.361Z,97.11
2019-04-11T04:58:37.950Z,97.11
2019-04-11T04:59:39.891Z,94.84
2019-04-11T05:00:37.848Z,97.01
2019-04-11T05:01:39.172Z,96.80
2019-04-11T05:02:37.612Z,95.77
2019-04-11T05:03:37.915Z,95.67
2019-04-11T05:04:38.423Z,95.77
2019-04-11T05:05:38.315Z,96.59
2019-04-11T05:06:38.764Z,95.15
2019-04-11T05:07:40.410Z,95.56
2019-04-11T05:08:39.009Z,96.59
2019-04-11T05:09:38.359Z,96.59
2019-04-11T05:12:13.894Z,93.71
2019-04-11T05:12:57.362Z,94.02
2019-04-11T05:13:58.592Z,94.84
2019-04-11T05:14:57.253Z,94.95
2019-04-11T05:16:07.238Z,94.02
2019-04-11T05:16:58.266Z,95.25
2019-04-11T05:17:57.704Z,95.77
2019-04-11T05:18:58.326Z,94.89
2019-04-11T05:19:58.428Z,95.09
2019-04-11T05:20:57.388Z,94.78
2019-04-11T05:21:57.568Z,94.89
2019-04-11T05:22:57.979Z,94.99
2019-04-11T05:23:58.453Z,95.09
2019-04-11T05:25:01.179Z,94.99
2019-04-11T05:25:57.238Z,95.81
2019-04-11T05:26:57.875Z,95.09
2019-04-11T05:27:58.164Z,93.75
2019-04-11T05:28:57.246Z,95.30
2019-04-11T05:29:57.095Z,94.47
2019-04-11T05:30:58.309Z,93.85
2019-04-11T05:31:57.104Z,93.85
2019-04-11T05:32:57.755Z,92.72
2019-04-11T05:33:59.164Z,93.38
2019-04-11T05:34:57.041Z,95.03
2019-04-11T05:35:57.050Z,93.34
2019-04-11T05:36:57.595Z,94.06
2019-04-11T05:37:57.924Z,93.59
2019-04-11T05:38:58.185Z,94.99
2019-04-11T05:39:56.994Z,92.82
2019-04-11T05:40:56.975Z,93.03
2019-04-11T05:41:56.968Z,92.82
2019-04-11T05:42:57.627Z,93.38
2019-04-11T05:44:00.777Z,93.90
2019-04-11T05:44:59.164Z,94.89
2019-04-11T05:45:58.225Z,95.14
2019-04-11T05:47:00.719Z,95.76
2019-04-11T05:47:58.296Z,96.89
2019-04-11T05:49:00.504Z,96.69
2019-04-11T05:49:56.982Z,95.07
2019-04-11T05:50:58.286Z,95.14
2019-04-11T05:51:58.812Z,95.86
2019-04-11T05:52:59.071Z,96.99
2019-04-11T05:53:57.721Z,97.61
2019-04-11T05:54:56.832Z,97.51
2019-04-11T05:55:57.406Z,95.86
2019-04-11T05:56:59.159Z,94.93
2019-04-11T05:57:56.819Z,96.89
2019-04-11T05:58:57.832Z,96.94
2019-04-11T05:59:57.771Z,96.99
2019-04-11T06:00:58.319Z,97.92
2019-04-11T06:02:01.621Z,98.65
2019-04-11T06:02:57.750Z,97.97
2019-04-11T06:03:57.369Z,97.97
2019-04-11T06:04:57.765Z,98.49
2019-04-11T06:05:59.864Z,97.55
2019-04-11T06:06:58.432Z,98.07
2019-04-11T06:07:57.868Z,98.18
2019-04-11T06:09:00.312Z,96.89
2019-04-11T06:09:56.805Z,97.86
2019-04-11T06:10:56.758Z,97.04
2019-04-11T06:11:57.983Z,96.62
2019-04-11T06:12:57.496Z,93.84
2019-04-11T06:13:56.646Z,95.59
2019-04-11T06:14:57.632Z,97.25
2019-04-11T06:16:00.685Z,98.13
2019-04-11T06:16:59.053Z,97.61
2019-04-11T06:17:56.670Z,96.83
2019-04-11T06:18:57.717Z,97.14
2019-04-11T06:19:57.604Z,97.76
2019-04-11T06:20:57.632Z,97.76
2019-04-11T06:21:56.578Z,98.13
2019-04-11T06:22:56.553Z,97.82
2019-04-11T06:23:56.531Z,95.65
2019-04-11T06:24:56.587Z,97.72
2019-04-11T06:25:57.601Z,98.85
2019-04-11T06:26:56.859Z,99.16
2019-04-11T06:27:56.492Z,97.30
2019-04-11T06:28:57.020Z,97.51
2019-04-11T06:29:56.477Z,97.72
2019-04-11T06:30:56.948Z,96.48
2019-04-11T06:31:57.233Z,96.89
2019-04-11T06:32:56.439Z,96.89
2019-04-11T06:33:56.639Z,97.51
2019-04-11T06:34:57.659Z,97.72
2019-04-11T06:35:56.715Z,96.37
2019-04-11T06:36:57.129Z,97.41
2019-04-11T06:37:56.592Z,97.92
2019-04-11T06:38:56.755Z,97.82
2019-04-11T06:39:58.228Z,97.51
2019-04-11T06:42:19.179Z,97.72
2019-04-11T06:43:17.367Z,97.72
2019-04-11T06:44:16.804Z,98.65
2019-04-11T06:45:17.562Z,98.60
2019-04-11T06:46:16.821Z,96.17
2019-04-11T06:47:16.808Z,96.48
2019-04-11T06:48:17.810Z,94.31
2019-04-11T06:49:16.743Z,94.93
2019-04-11T06:50:17.344Z,95.09
2019-04-11T06:51:16.730Z,94.82
2019-04-11T06:52:16.848Z,95.34
2019-04-11T06:53:16.786Z,95.20
2019-04-11T06:54:16.901Z,95.09
2019-04-11T06:55:16.681Z,95.30
2019-04-11T06:56:16.912Z,95.76
2019-04-11T06:57:16.706Z,95.09
2019-04-11T06:58:16.666Z,93.59
2019-04-11T06:59:20.613Z,94.57
2019-04-11T07:00:16.933Z,95.20
2019-04-11T07:01:16.640Z,94.99
2019-04-11T07:02:20.302Z,94.37
2019-04-11T07:03:22.701Z,93.24
2019-04-11T07:04:17.645Z,93.85
2019-04-11T07:05:16.598Z,93.90
2019-04-11T07:06:17.534Z,91.42
2019-04-11T07:07:18.429Z,92.41
2019-04-11T07:09:28.795Z,92.14
2019-04-11T07:10:28.736Z,93.79
2019-04-11T07:11:28.660Z,95.24
2019-04-11T07:12:28.712Z,92.46
2019-04-11T07:13:28.633Z,93.69
2019-04-11T07:14:29.139Z,94.06
2019-04-11T07:15:29.362Z,93.07
2019-04-11T07:16:31.417Z,93.18
2019-04-11T07:17:29.647Z,93.38
2019-04-11T07:18:29.084Z,93.07
2019-04-11T07:19:28.713Z,93.79
2019-04-11T07:20:29.336Z,92.66
2019-04-11T07:21:28.479Z,93.38
2019-04-11T07:22:28.493Z,93.90
2019-04-11T07:23:28.592Z,93.07
2019-04-11T07:24:28.450Z,92.66
2019-04-11T07:25:28.954Z,93.59
2019-04-11T07:26:29.468Z,93.28
2019-04-11T07:27:28.458Z,94.00
2019-04-11T07:28:29.498Z,92.31
2019-04-11T07:29:29.670Z,91.89
2019-04-11T07:30:28.936Z,93.07
2019-04-11T07:31:29.856Z,93.90
2019-04-11T07:32:29.762Z,93.59
2019-04-11T07:33:28.920Z,93.38
2019-04-11T07:34:32.687Z,93.75
2019-04-11T07:35:29.415Z,93.79
2019-04-11T07:36:29.576Z,93.49
2019-04-11T07:37:28.377Z,91.63
2019-04-11T07:38:29.428Z,92.66
2019-04-11T07:40:50.249Z,93.44
2019-04-11T07:41:47.916Z,92.61
2019-04-11T07:42:49.402Z,91.79
2019-04-11T07:43:47.720Z,92.00
2019-04-11T07:44:47.522Z,91.58
2019-04-11T07:45:47.619Z,90.86
2019-04-11T07:46:49.437Z,92.10
2019-04-11T07:47:48.274Z,92.41
2019-04-11T07:48:47.481Z,90.66
2019-04-11T07:49:54.956Z,91.38
2019-04-11T07:50:48.763Z,91.79
2019-04-11T07:51:48.532Z,92.41
2019-04-11T07:52:47.456Z,93.54
2019-04-11T07:53:48.099Z,91.89
2019-04-11T07:54:47.763Z,91.79
2019-04-11T07:55:47.550Z,91.24
2019-04-11T07:56:48.522Z,92.16
2019-04-11T07:57:47.410Z,92.47
2019-04-11T07:58:47.882Z,93.50
2019-04-11T07:59:47.367Z,92.99
2019-04-11T08:00:51.269Z,92.99
2019-04-11T08:01:49.279Z,93.40
2019-04-11T08:02:49.886Z,92.78
2019-04-11T08:03:47.322Z,92.37
2019-04-11T08:04:47.361Z,92.57
2019-04-11T08:05:47.305Z,91.50
2019-04-11T08:06:47.940Z,92.16
2019-04-11T08:07:47.338Z,92.37
2019-04-11T08:08:47.281Z,92.16
2019-04-11T08:09:48.278Z,92.27
2019-04-11T08:10:48.379Z,93.81
2019-04-11T08:11:47.780Z,93.15
2019-04-11T08:12:47.948Z,93.56
2019-04-11T08:13:53.028Z,93.56
2019-04-11T08:14:47.254Z,91.19
2019-04-11T08:15:48.119Z,92.49
2019-04-11T08:16:47.184Z,93.01
2019-04-11T08:17:48.081Z,90.53
2019-04-11T08:18:47.207Z,89.40
2019-04-11T08:19:47.162Z,91.36
2019-04-11T08:20:47.805Z,90.43
2019-04-11T08:21:47.181Z,89.71
2019-04-11T08:22:47.555Z,90.90
2019-04-11T08:23:47.763Z,89.36
2019-04-11T08:24:47.100Z,88.64
2019-04-11T08:27:07.543Z,87.75
2019-04-11T08:28:07.625Z,89.40
2019-04-11T08:29:11.680Z,88.57
2019-04-11T08:30:06.653Z,87.34
2019-04-11T08:31:05.538Z,88.37
2019-04-11T08:32:05.689Z,90.84
2019-04-11T08:33:07.420Z,88.57
2019-04-11T08:34:05.363Z,87.96
2019-04-11T08:35:06.031Z,87.75
2019-04-11T08:36:07.237Z,87.03
2019-04-11T08:37:05.421Z,88.47
2019-04-11T08:38:05.320Z,89.50
2019-04-11T08:39:05.277Z,88.89
2019-04-11T08:40:11.506Z,89.56
2019-04-11T08:41:07.315Z,88.95
2019-04-11T08:42:05.252Z,89.46
2019-04-11T08:43:05.261Z,88.43
2019-04-11T08:44:05.614Z,87.30
2019-04-11T08:45:06.022Z,87.60
2019-04-11T08:46:05.199Z,89.09
2019-04-11T08:47:06.054Z,87.92
2019-04-11T08:48:05.214Z,88.57
2019-04-11T08:49:05.661Z,88.68
2019-04-11T08:50:06.105Z,89.09
2019-04-11T08:51:05.245Z,89.91
2019-04-11T08:52:05.513Z,89.61
2019-04-11T08:53:05.171Z,90.12
2019-04-11T08:54:05.125Z,91.66
2019-04-11T08:55:06.219Z,91.11
2019-04-11T08:56:07.032Z,89.77
2019-04-11T08:57:05.098Z,91.62
2019-04-11T08:58:05.106Z,90.73
2019-04-11T08:59:05.068Z,88.26
2019-04-11T09:00:06.154Z,90.22
2019-04-11T09:01:05.450Z,89.36
2019-04-11T09:02:05.048Z,90.43
2019-04-11T09:03:05.169Z,89.40
2019-04-11T09:04:07.950Z,89.71
2019-04-11T09:05:13.111Z,89.61
2019-04-11T09:06:06.324Z,89.40
2019-04-11T09:07:19.770Z,88.68
2019-04-11T09:08:05.836Z,90.64
2019-04-11T09:09:05.255Z,90.94
2019-04-11T09:10:04.976Z,89.40
2019-04-11T09:11:04.986Z,89.09
2019-04-11T09:12:04.938Z,88.57
2019-04-11T09:13:04.964Z,88.99
2019-04-11T09:14:06.022Z,88.62
2019-04-11T09:15:04.899Z,88.72
2019-04-11T09:16:05.605Z,88.92
2019-04-11T09:17:05.889Z,88.92
2019-04-11T09:18:09.016Z,90.53
2019-04-11T09:19:06.335Z,89.54
2019-04-11T09:20:05.332Z,90.47
2019-04-11T09:21:04.847Z,89.54
2019-04-11T09:22:04.831Z,88.92
2019-04-11T09:23:05.837Z,87.59
2019-04-11T09:24:04.802Z,89.85
2019-04-11T09:25:05.189Z,89.85
2019-04-11T09:26:04.784Z,89.19
2019-04-11T09:27:04.771Z,90.67
2019-04-11T09:28:05.001Z,90.57
2019-04-11T09:29:05.986Z,91.60
2019-04-11T09:30:04.748Z,90.12
2019-04-11T09:31:07.746Z,88.99
2019-04-11T09:32:04.721Z,90.12
2019-04-11T09:33:04.818Z,90.73
2019-04-11T09:34:05.811Z,91.05
2019-04-11T09:36:24.619Z,90.49
2019-04-11T09:37:25.358Z,90.43
2019-04-11T09:38:24.619Z,91.66
2019-04-11T09:40:58.729Z,91.21
2019-04-11T09:41:52.442Z,90.28
2019-04-11T09:42:53.376Z,90.39
2019-04-11T09:43:52.710Z,89.81
2019-04-11T09:44:53.156Z,91.25
2019-04-11T09:45:52.636Z,90.69
2019-04-11T09:46:52.190Z,91.72
2019-04-11T09:47:52.200Z,89.97
2019-04-11T09:48:52.167Z,89.19
2019-04-11T09:49:52.157Z,90.49
2019-04-11T09:50:53.205Z,90.69
2019-04-11T09:51:52.144Z,90.28
2019-04-11T09:52:52.189Z,91.52
2019-04-11T09:53:52.907Z,89.36
2019-04-11T09:54:52.641Z,90.18
2019-04-11T09:55:52.090Z,89.87
2019-04-11T09:56:52.079Z,90.34
2019-04-11T09:57:54.960Z,89.56
2019-04-11T09:58:52.063Z,90.90
2019-04-11T09:59:52.060Z,89.67
2019-04-11T10:00:52.923Z,91.52
2019-04-11T10:01:52.032Z,90.28
2019-04-11T10:02:52.738Z,90.34
2019-04-11T10:03:52.898Z,90.66
2019-04-11T10:04:52.232Z,90.66
2019-04-11T10:05:52.005Z,91.17
2019-04-11T10:06:52.973Z,90.66
2019-04-11T10:07:52.346Z,89.17
2019-04-11T10:08:52.100Z,90.61
2019-04-11T10:09:52.437Z,89.17
2019-04-11T10:10:53.012Z,87.18
2019-04-11T10:11:52.580Z,89.44
2019-04-11T10:12:52.110Z,87.24
2019-04-11T10:13:53.167Z,88.37
2019-04-11T10:14:51.905Z,89.60
2019-04-11T10:15:51.894Z,87.85
2019-04-11T10:16:52.612Z,88.74
2019-04-11T10:17:51.871Z,85.97
2019-04-11T10:18:51.875Z,86.58
2019-04-11T10:19:52.088Z,87.30
2019-04-11T10:20:52.937Z,87.77
2019-04-11T10:21:51.832Z,86.85
2019-04-11T10:24:14.370Z,85.27
2019-04-11T10:25:12.705Z,83.12
2019-04-11T10:26:11.804Z,84.82
2019-04-11T10:27:12.282Z,86.36
2019-04-11T10:28:11.583Z,85.09
2019-04-11T10:29:11.551Z,85.87
2019-04-11T10:30:11.673Z,83.72
2019-04-11T10:31:12.624Z,82.59
2019-04-11T10:32:11.791Z,81.57
2019-04-11T10:33:11.523Z,82.39
2019-04-11T10:34:11.483Z,82.35
2019-04-11T10:35:14.583Z,80.81
2019-04-11T10:36:12.554Z,81.43
2019-04-11T10:37:11.792Z,80.91
2019-04-11T10:38:11.969Z,80.54
2019-04-11T10:39:11.433Z,82.08
2019-04-11T10:40:11.415Z,81.26
2019-04-11T10:41:12.479Z,81.05
2019-04-11T10:42:12.512Z,81.52
2019-04-11T10:43:11.893Z,82.55
2019-04-11T10:44:11.763Z,80.98
2019-04-11T10:45:12.211Z,81.49
2019-04-11T10:46:11.371Z,83.64
2019-04-11T10:47:12.400Z,80.19
2019-04-11T10:48:11.683Z,79.61
2019-04-11T10:49:11.651Z,80.94
2019-04-11T10:50:11.307Z,80.02
2019-04-11T10:51:11.320Z,80.63
2019-04-11T10:52:11.985Z,80.88
2019-04-11T10:53:11.279Z,80.77
2019-04-11T10:54:11.445Z,80.63
2019-04-11T10:55:11.467Z,81.86
2019-04-11T10:56:11.252Z,82.48
2019-04-11T10:57:15.960Z,80.63
2019-04-11T10:59:40.760Z,80.19
2019-04-11T11:00:33.481Z,83.25
2019-04-11T11:01:33.753Z,80.35
2019-04-11T11:02:33.622Z,81.58
2019-04-11T11:03:32.535Z,81.85
2019-04-11T11:04:32.617Z,77.83
2019-04-11T11:05:32.583Z,77.62
2019-04-11T11:06:32.565Z,78.95
2019-04-11T11:07:32.942Z,77.28
2019-04-11T11:08:33.331Z,77.11
2019-04-11T11:09:32.539Z,76.46
2019-04-11T11:10:33.288Z,78.91
2019-04-11T11:11:32.479Z,77.08
2019-04-11T11:12:32.960Z,77.18
2019-04-11T11:13:32.358Z,77.52
2019-04-11T11:14:32.361Z,78.23
2019-04-11T11:15:33.680Z,77.31
2019-04-11T11:16:34.025Z,77.83
2019-04-11T11:17:55.984Z,78.20
2019-04-11T11:18:54.091Z,77.38
2019-04-11T11:19:45.714Z,78.50
2019-04-11T11:20:38.653Z,78.88
2019-04-11T11:21:35.195Z,76.87
2019-04-11T11:22:34.481Z,76.93
2019-04-11T11:23:35.166Z,76.36
2019-04-11T11:24:32.331Z,76.87
2019-04-11T11:25:33.027Z,75.71
2019-04-11T11:26:33.761Z,75.41
2019-04-11T11:27:32.431Z,75.71
2019-04-11T11:28:32.353Z,75.71
2019-04-11T11:29:37.125Z,76.43
2019-04-11T11:30:32.554Z,77.55
2019-04-11T11:31:32.247Z,77.25
2019-04-11T11:32:33.533Z,76.70
2019-04-11T11:33:32.150Z,76.39
2019-04-11T11:34:32.647Z,78.30
2019-04-11T11:35:34.913Z,75.68
2019-04-11T11:36:37.021Z,74.35
2019-04-11T11:37:33.296Z,77.14
2019-04-11T11:38:32.097Z,74.38
2019-04-11T11:39:33.215Z,76.22
2019-04-11T11:40:32.116Z,76.22
2019-04-11T11:41:32.302Z,77.45
2019-04-11T11:42:32.502Z,75.41
2019-04-11T11:43:41.358Z,74.29
2019-04-11T11:44:32.949Z,74.15
2019-04-11T11:45:33.216Z,74.55
2019-04-11T11:46:32.122Z,73.81
2019-04-11T11:47:36.484Z,74.90
2019-04-11T11:48:33.430Z,73.60
2019-04-11T11:49:44.942Z,73.57
2019-04-11T11:50:34.515Z,73.88
2019-04-11T11:51:33.173Z,74.08
2019-04-11T11:52:34.451Z,74.01
2019-04-11T11:53:33.011Z,74.11
2019-04-11T11:54:34.210Z,70.41
2019-04-11T11:56:56.131Z,73.47
2019-04-11T11:57:55.236Z,71.19
2019-04-11T11:59:11.159Z,72.28
2019-04-11T11:59:55.279Z,71.23
2019-04-11T12:00:57.158Z,72.11
2019-04-11T12:01:55.884Z,69.46
2019-04-11T12:02:55.466Z,72.14
2019-04-11T12:03:59.343Z,70.07
2019-04-11T12:04:56.129Z,70.79
2019-04-11T12:05:55.084Z,70.65
2019-04-11T12:06:58.892Z,71.64
2019-04-11T12:07:56.181Z,70.45
2019-04-11T12:08:56.074Z,72.45
2019-04-11T12:09:55.122Z,72.45
2019-04-11T12:12:17.713Z,71.40
2019-04-11T12:13:14.988Z,69.57
2019-04-11T12:14:15.874Z,72.21
2019-04-11T12:15:17.674Z,69.97
2019-04-11T12:16:19.275Z,69.67
2019-04-11T12:17:16.448Z,70.89
2019-04-11T12:18:18.082Z,72.45
2019-04-11T12:19:18.014Z,70.86
2019-04-11T12:20:16.534Z,71.16
2019-04-11T12:21:16.360Z,69.60
2019-04-11T12:22:16.086Z,70.48
2019-04-11T12:23:15.090Z,69.70
2019-04-11T12:24:15.470Z,71.40
2019-04-11T12:25:14.715Z,70.28
2019-04-11T12:26:16.455Z,71.40
2019-04-11T12:27:14.702Z,69.57
2019-04-11T12:28:17.426Z,68.79
2019-04-11T12:29:15.733Z,68.88
2019-04-11T12:30:15.658Z,71.23
2019-04-11T12:32:38.885Z,69.43
2019-04-11T12:33:33.220Z,68.99
2019-04-11T12:34:32.996Z,68.49
2019-04-11T12:35:32.881Z,69.13
2019-04-11T12:36:32.885Z,69.43
2019-04-11T12:37:33.669Z,70.21
2019-04-11T12:38:32.985Z,71.03
2019-04-11T12:39:32.936Z,70.31
2019-04-11T12:40:32.932Z,71.84
2019-04-11T12:41:33.019Z,69.50
2019-04-11T12:42:32.922Z,71.36
2019-04-11T12:43:32.827Z,68.11
2019-04-11T12:44:32.784Z,69.87
2019-04-11T12:45:32.775Z,69.46
2019-04-11T12:46:32.763Z,69.87
2019-04-11T12:47:38.628Z,68.88
2019-04-11T12:48:32.767Z,69.09
2019-04-11T12:49:32.728Z,70.31
2019-04-11T12:50:32.729Z,71.23
2019-04-11T12:51:34.350Z,70.72
2019-04-11T12:52:32.746Z,70.14
2019-04-11T12:53:32.684Z,70.99
2019-04-11T12:54:32.680Z,70.34
2019-04-11T12:55:32.730Z,71.16
2019-04-11T12:56:32.658Z,72.14
2019-04-11T12:57:32.645Z,69.29
2019-04-11T12:58:32.641Z,72.45
2019-04-11T12:59:32.633Z,69.16
2019-04-11T13:00:32.630Z,69.36
2019-04-11T13:01:32.638Z,68.99
2019-04-11T13:02:39.143Z,69.90
2019-04-11T13:03:32.601Z,69.84
2019-04-11T13:04:48.152Z,71.43
2019-04-11T13:05:32.558Z,70.51
2019-04-11T13:06:35.531Z,69.90
2019-04-11T13:07:32.767Z,72.28
2019-04-11T13:08:32.564Z,69.43
2019-04-11T13:09:32.522Z,70.14
2019-04-11T13:10:32.548Z,72.01
2019-04-11T13:11:39.119Z,74.01
2019-04-11T13:12:32.484Z,72.89